Time;durP1;ratioP1;P1;durP2;ratioP2;P2;SDS_P1;SDS_P2;PMS_P1;PMS_P2;Temp;Humidity;BMP_temperature;BMP_pressure;BME280_temperature;BME280_humidity;BME280_pressure;Samples;Min_cycle;Max_cycle;Signal;HPM_P1;HPM_P2
2021/12/27 00:00:55;;;;;;;2.83;2.03;;;;;;;;;;5043673;28;20028;-31
2021/12/27 00:03:20;;;;;;;2.15;1.67;;;;;;;;;;5043865;28;20025;-29
2021/12/27 00:05:46;;;;;;;2.22;1.63;;;;;;;;;;5043364;28;20029;-36
2021/12/27 00:08:11;;;;;;;3.00;1.90;;;;;;;;;;5043593;28;20741;-29
2021/12/27 00:10:37;;;;;;;2.38;2.00;;;;;;;;;;5043574;28;20028;-35
2021/12/27 00:13:04;;;;;;;1.58;1.40;;;;;;;;;;5043200;28;20043;-30
2021/12/27 00:15:29;;;;;;;2.10;1.48;;;;;;;;;;5043553;28;20029;-34
2021/12/27 00:17:55;;;;;;;3.17;1.77;;;;;;;;;;5043390;28;20036;-32
2021/12/27 00:20:21;;;;;;;2.50;1.45;;;;;;;;;;5043322;28;20052;-33
2021/12/27 00:22:46;;;;;;;1.70;1.33;;;;;;;;;;5043314;28;20463;-29
2021/12/27 00:25:12;;;;;;;2.42;1.70;;;;;;;;;;5042062;28;20036;-33
2021/12/27 00:27:38;;;;;;;2.65;1.30;;;;;;;;;;5043227;28;20083;-34
2021/12/27 00:30:05;;;;;;;2.22;1.77;;;;;;;;;;5043081;28;20041;-29
2021/12/27 00:32:32;;;;;;;1.80;1.40;;;;;;;;;;5042685;28;20029;-30
2021/12/27 00:34:58;;;;;;;2.47;1.52;;;;;;;;;;5043129;28;20024;-31
2021/12/27 00:37:24;;;;;;;1.70;1.30;;;;;;;;;;5042965;28;20567;-31
2021/12/27 00:39:49;;;;;;;2.60;1.85;;;;;;;;;;5043171;28;20033;-32
2021/12/27 00:42:15;;;;;;;1.70;1.33;;;;;;;;;;5043084;28;20479;-33
2021/12/27 00:44:40;;;;;;;2.42;1.70;;;;;;;;;;5043036;28;20033;-31
2021/12/27 00:47:06;;;;;;;2.00;1.50;;;;;;;;;;5043146;28;20104;-35
2021/12/27 00:49:32;;;;;;;3.35;1.40;;;;;;;;;;5042992;28;20506;-32
2021/12/27 00:51:57;;;;;;;1.90;1.40;;;;;;;;;;5042558;28;20091;-33
2021/12/27 00:54:23;;;;;;;2.00;1.48;;;;;;;;;;5042898;28;20124;-29
2021/12/27 00:56:48;;;;;;;1.60;1.30;;;;;;;;;;5040770;28;20632;-33
2021/12/27 00:59:14;;;;;;;1.83;1.30;;;;;;;;;;5043150;28;20052;-35
2021/12/27 01:01:39;;;;;;;1.60;1.23;;;;;;;;;;5042836;28;20507;-29
2021/12/27 01:04:05;;;;;;;1.98;1.50;;;;;;;;;;5042577;28;20545;-38
2021/12/27 01:06:31;;;;;;;1.67;1.30;;;;;;;;;;5042511;28;20178;-30
2021/12/27 01:08:56;;;;;;;2.60;1.63;;;;;;;;;;5042380;28;20096;-33
2021/12/27 01:11:35;;;;;;;2.10;1.40;;;;;;;;;;5042571;28;20037;-30
2021/12/27 01:16:26;;;;;;;1.50;1.02;;;;;;;;;;5042746;28;20032;-35
2021/12/27 01:18:52;;;;;;;1.38;1.15;;;;;;;;;;5040929;28;20021;-29
2021/12/27 01:21:20;;;;;;;1.83;1.30;;;;;;;;;;5042587;28;20067;-32
2021/12/27 01:23:46;;;;;;;1.48;1.25;;;;;;;;;;5040814;28;20048;-35
2021/12/27 01:26:11;;;;;;;1.55;1.25;;;;;;;;;;5022821;28;20112;-34
2021/12/27 01:28:37;;;;;;;1.85;1.33;;;;;;;;;;5022734;28;20408;-32
2021/12/27 01:31:03;;;;;;;1.67;1.30;;;;;;;;;;5022552;28;20026;-31
2021/12/27 01:33:29;;;;;;;1.50;1.20;;;;;;;;;;5022543;28;20033;-34
2021/12/27 01:35:55;;;;;;;1.52;1.30;;;;;;;;;;5021163;28;20030;-33
2021/12/27 01:38:20;;;;;;;1.25;1.00;;;;;;;;;;5022735;28;20205;-33
2021/12/27 01:40:49;;;;;;;1.45;1.20;;;;;;;;;;5022447;28;20037;-32
2021/12/27 01:43:28;;;;;;;2.00;1.33;;;;;;;;;;5024535;28;20044;-30
2021/12/27 01:46:05;;;;;;;1.88;1.10;;;;;;;;;;5026192;28;20129;-31
2021/12/27 01:48:33;;;;;;;1.23;1.02;;;;;;;;;;5026513;28;20036;-33
2021/12/27 01:51:00;;;;;;;1.77;1.27;;;;;;;;;;5026309;28;20177;-31
2021/12/27 01:53:27;;;;;;;2.10;1.23;;;;;;;;;;5026414;28;20064;-34
2021/12/27 01:55:53;;;;;;;1.90;1.40;;;;;;;;;;5038472;28;20025;-34
2021/12/27 01:58:19;;;;;;;1.27;0.90;;;;;;;;;;5046134;28;20434;-32
2021/12/27 02:00:47;;;;;;;1.52;1.13;;;;;;;;;;5045822;28;20048;-35
2021/12/27 02:03:14;;;;;;;1.50;1.20;;;;;;;;;;5045952;28;20021;-32
2021/12/27 02:05:40;;;;;;;1.58;1.10;;;;;;;;;;5045980;28;20043;-29
2021/12/27 02:08:06;;;;;;;1.52;1.20;;;;;;;;;;5045711;28;20045;-33
2021/12/27 02:10:32;;;;;;;1.58;1.10;;;;;;;;;;5046114;28;20646;-30
2021/12/27 02:12:57;;;;;;;1.23;0.93;;;;;;;;;;5045686;28;20048;-34
2021/12/27 02:15:23;;;;;;;1.75;1.20;;;;;;;;;;5045384;28;20029;-34
2021/12/27 02:17:48;;;;;;;1.92;1.20;;;;;;;;;;5045493;28;20075;-31
2021/12/27 02:20:18;;;;;;;1.33;1.10;;;;;;;;;;5046088;28;20037;-31
2021/12/27 02:22:44;;;;;;;1.55;1.13;;;;;;;;;;5045919;28;20119;-34
2021/12/27 02:25:10;;;;;;;1.83;1.40;;;;;;;;;;5045461;28;20502;-31
2021/12/27 02:27:36;;;;;;;1.35;0.95;;;;;;;;;;5045974;28;20029;-31
2021/12/27 02:30:03;;;;;;;1.17;0.88;;;;;;;;;;5045318;28;20495;-33
2021/12/27 02:32:30;;;;;;;0.80;0.70;;;;;;;;;;5045487;28;20033;-31
2021/12/27 02:34:56;;;;;;;1.35;1.13;;;;;;;;;;5045615;28;20032;-32
2021/12/27 02:37:21;;;;;;;1.65;1.25;;;;;;;;;;5045453;28;20032;-30
2021/12/27 02:39:47;;;;;;;1.15;1.00;;;;;;;;;;5044775;28;20404;-34
2021/12/27 02:42:18;;;;;;;1.60;1.17;;;;;;;;;;5045456;28;20037;-33
2021/12/27 02:44:44;;;;;;;1.20;1.05;;;;;;;;;;5044781;28;20033;-31
2021/12/27 02:47:10;;;;;;;1.52;1.15;;;;;;;;;;5045122;28;20032;-32
2021/12/27 02:49:36;;;;;;;1.13;1.00;;;;;;;;;;5044965;28;20032;-35
2021/12/27 02:52:01;;;;;;;2.45;1.45;;;;;;;;;;5045024;28;20029;-34
2021/12/27 02:54:27;;;;;;;1.58;1.10;;;;;;;;;;5042983;28;20084;-34
2021/12/27 02:56:52;;;;;;;1.23;1.00;;;;;;;;;;5025077;28;20029;-34
2021/12/27 02:59:18;;;;;;;1.38;1.13;;;;;;;;;;5024987;28;20112;-30
2021/12/27 03:02:09;;;;;;;1.42;1.10;;;;;;;;;;5024855;28;20492;-29
2021/12/27 03:04:36;;;;;;;1.25;1.00;;;;;;;;;;5024917;28;20041;-31
2021/12/27 03:07:02;;;;;;;1.75;0.93;;;;;;;;;;5024687;28;20130;-33
2021/12/27 03:09:28;;;;;;;1.35;1.10;;;;;;;;;;5023389;28;20071;-33
2021/12/27 03:11:53;;;;;;;1.83;1.10;;;;;;;;;;5024556;28;20037;-33
2021/12/27 03:14:23;;;;;;;1.02;0.88;;;;;;;;;;5024678;28;20053;-33
2021/12/27 03:16:48;;;;;;;1.70;1.08;;;;;;;;;;5024725;28;20136;-30
2021/12/27 03:19:14;;;;;;;1.40;0.88;;;;;;;;;;5024515;28;20033;-32
2021/12/27 03:21:39;;;;;;;1.40;1.30;;;;;;;;;;5024531;28;20123;-34
2021/12/27 03:24:05;;;;;;;0.90;0.80;;;;;;;;;;5024504;28;20447;-32
2021/12/27 03:26:31;;;;;;;1.65;1.17;;;;;;;;;;5024338;28;20037;-31
2021/12/27 03:28:56;;;;;;;1.15;1.00;;;;;;;;;;5024703;28;20056;-29
2021/12/27 03:31:22;;;;;;;1.10;0.85;;;;;;;;;;5024556;28;20029;-29
2021/12/27 03:33:47;;;;;;;2.08;0.80;;;;;;;;;;5022947;28;20025;-38
2021/12/27 03:36:13;;;;;;;1.13;1.00;;;;;;;;;;5024337;28;20038;-32
2021/12/27 03:38:44;;;;;;;1.13;0.93;;;;;;;;;;5023208;28;20472;-29
2021/12/27 03:41:12;;;;;;;1.10;0.90;;;;;;;;;;5024030;28;20034;-30
2021/12/27 03:43:38;;;;;;;1.73;1.08;;;;;;;;;;5024649;28;20025;-37
2021/12/27 03:46:04;;;;;;;1.10;0.80;;;;;;;;;;5024274;28;20431;-30
2021/12/27 03:48:30;;;;;;;1.02;0.90;;;;;;;;;;5024267;28;20379;-35
2021/12/27 03:50:55;;;;;;;0.73;0.73;;;;;;;;;;5024245;28;20029;-31
2021/12/27 03:53:21;;;;;;;1.67;1.00;;;;;;;;;;5024062;28;20088;-33
2021/12/27 03:55:47;;;;;;;1.30;1.00;;;;;;;;;;5024505;28;20877;-35
2021/12/27 03:58:25;;;;;;;1.83;1.10;;;;;;;;;;5024072;28;20040;-30
2021/12/27 04:03:16;;;;;;;2.20;1.00;;;;;;;;;;5023669;28;20018;-33
2021/12/27 04:05:42;;;;;;;1.83;1.00;;;;;;;;;;5022238;28;20029;-34
2021/12/27 04:08:10;;;;;;;0.82;0.70;;;;;;;;;;5023405;28;20041;-35
2021/12/27 04:10:40;;;;;;;1.15;0.90;;;;;;;;;;5023696;28;20030;-31
2021/12/27 04:13:06;;;;;;;1.40;1.00;;;;;;;;;;5023713;28;20071;-31
2021/12/27 04:15:32;;;;;;;1.73;0.90;;;;;;;;;;5023650;28;20033;-35
2021/12/27 04:17:57;;;;;;;1.55;1.15;;;;;;;;;;5023639;28;20566;-34
2021/12/27 04:20:23;;;;;;;1.13;0.90;;;;;;;;;;5023817;28;20713;-31
2021/12/27 04:22:49;;;;;;;1.25;0.80;;;;;;;;;;5023796;28;20033;-34
2021/12/27 04:25:15;;;;;;;0.95;0.80;;;;;;;;;;5023692;28;20423;-29
2021/12/27 04:27:40;;;;;;;1.20;0.90;;;;;;;;;;5023289;28;20029;-30
2021/12/27 04:30:06;;;;;;;1.00;0.82;;;;;;;;;;5023268;28;20040;-32
2021/12/27 04:32:32;;;;;;;1.00;0.85;;;;;;;;;;5023686;28;20033;-32
2021/12/27 04:34:57;;;;;;;0.70;0.68;;;;;;;;;;5023319;28;20101;-31
2021/12/27 04:37:23;;;;;;;1.13;0.93;;;;;;;;;;5023167;28;20029;-36
2021/12/27 04:39:49;;;;;;;1.60;0.90;;;;;;;;;;5023314;28;20817;-32
2021/12/27 04:42:14;;;;;;;1.05;0.88;;;;;;;;;;5023368;28;20037;-33
2021/12/27 04:44:40;;;;;;;1.17;0.70;;;;;;;;;;5023090;28;20515;-31
2021/12/27 04:47:05;;;;;;;0.80;0.60;;;;;;;;;;5023004;28;20025;-34
2021/12/27 04:49:31;;;;;;;1.02;0.80;;;;;;;;;;5023203;28;20539;-35
2021/12/27 04:51:56;;;;;;;0.77;0.60;;;;;;;;;;5023313;28;20056;-31
2021/12/27 04:54:22;;;;;;;0.88;0.63;;;;;;;;;;5024612;28;20707;-33
2021/12/27 04:56:48;;;;;;;0.88;0.80;;;;;;;;;;5041190;28;20064;-34
2021/12/27 04:59:13;;;;;;;1.33;0.80;;;;;;;;;;5042946;28;20144;-31
2021/12/27 05:01:39;;;;;;;1.15;0.60;;;;;;;;;;5042706;28;20024;-35
2021/12/27 05:04:05;;;;;;;0.98;0.73;;;;;;;;;;5042635;28;20029;-30
2021/12/27 05:06:30;;;;;;;0.98;0.77;;;;;;;;;;5042640;28;20037;-30
2021/12/27 05:08:56;;;;;;;1.00;0.85;;;;;;;;;;5042078;28;20048;-32
2021/12/27 05:11:21;;;;;;;1.00;0.90;;;;;;;;;;5042530;28;20029;-30
2021/12/27 05:13:47;;;;;;;1.00;0.90;;;;;;;;;;5042635;28;20165;-35
2021/12/27 05:16:12;;;;;;;1.00;0.80;;;;;;;;;;5042586;28;20487;-31
2021/12/27 05:18:38;;;;;;;0.55;0.50;;;;;;;;;;5041995;28;20029;-32
2021/12/27 05:21:03;;;;;;;0.90;0.73;;;;;;;;;;5042723;28;20116;-32
2021/12/27 05:23:31;;;;;;;1.15;0.95;;;;;;;;;;5042387;28;20025;-31
2021/12/27 05:25:56;;;;;;;1.55;0.80;;;;;;;;;;5041861;28;20029;-30
2021/12/27 05:28:22;;;;;;;0.75;0.65;;;;;;;;;;5042592;28;20044;-34
2021/12/27 05:30:48;;;;;;;1.10;0.75;;;;;;;;;;5042469;28;20021;-29
2021/12/27 05:33:15;;;;;;;1.10;0.88;;;;;;;;;;5042549;28;20067;-28
2021/12/27 05:35:41;;;;;;;1.30;0.90;;;;;;;;;;5042552;28;20040;-31
2021/12/27 05:38:07;;;;;;;0.70;0.68;;;;;;;;;;5042493;28;20040;-33
2021/12/27 05:40:32;;;;;;;1.27;1.00;;;;;;;;;;5042379;28;20021;-31
2021/12/27 05:42:58;;;;;;;1.00;0.85;;;;;;;;;;5041073;28;20025;-32
2021/12/27 05:45:23;;;;;;;0.88;0.80;;;;;;;;;;5042223;28;20033;-31
2021/12/27 05:47:49;;;;;;;0.98;0.80;;;;;;;;;;5042231;28;20029;-32
2021/12/27 05:50:15;;;;;;;1.08;0.90;;;;;;;;;;5042242;28;20071;-32
2021/12/27 05:52:41;;;;;;;0.98;0.88;;;;;;;;;;5042450;28;20550;-31
2021/12/27 05:55:08;;;;;;;0.82;0.80;;;;;;;;;;5031618;28;20033;-33
2021/12/27 05:57:34;;;;;;;0.82;0.70;;;;;;;;;;5022582;28;20037;-36
2021/12/27 06:00:00;;;;;;;2.05;0.98;;;;;;;;;;5022228;28;20038;-34
2021/12/27 06:02:25;;;;;;;1.10;1.00;;;;;;;;;;5022044;28;20082;-30
2021/12/27 06:04:51;;;;;;;1.20;1.00;;;;;;;;;;5022297;28;20025;-34
2021/12/27 06:07:16;;;;;;;1.00;0.68;;;;;;;;;;5021677;28;20041;-31
2021/12/27 06:09:42;;;;;;;0.88;0.80;;;;;;;;;;5022056;28;20620;-29
2021/12/27 06:12:08;;;;;;;1.00;0.80;;;;;;;;;;5021883;28;20033;-34
2021/12/27 06:14:33;;;;;;;0.80;0.70;;;;;;;;;;5022295;28;20041;-31
2021/12/27 06:16:59;;;;;;;0.73;0.70;;;;;;;;;;5021886;28;20561;-31
2021/12/27 06:19:24;;;;;;;0.73;0.60;;;;;;;;;;5037265;28;20053;-36
2021/12/27 06:21:50;;;;;;;1.02;0.90;;;;;;;;;;5021951;28;20040;-35
2021/12/27 06:24:15;;;;;;;0.75;0.68;;;;;;;;;;5022100;28;20025;-33
2021/12/27 06:26:41;;;;;;;1.00;0.80;;;;;;;;;;5025238;28;20035;-34
2021/12/27 06:29:06;;;;;;;0.90;0.80;;;;;;;;;;5042008;28;20021;-31
2021/12/27 06:31:32;;;;;;;0.90;0.73;;;;;;;;;;5045872;28;20141;-35
2021/12/27 06:33:57;;;;;;;0.73;0.63;;;;;;;;;;5045512;28;20558;-31
2021/12/27 06:36:24;;;;;;;0.90;0.80;;;;;;;;;;5045650;28;20059;-29
2021/12/27 06:38:49;;;;;;;0.75;0.70;;;;;;;;;;5045355;28;20057;-30
2021/12/27 06:41:15;;;;;;;1.02;0.85;;;;;;;;;;5045036;28;20056;-30
2021/12/27 06:43:40;;;;;;;0.82;0.82;;;;;;;;;;5045491;28;20424;-33
2021/12/27 06:46:06;;;;;;;0.70;0.70;;;;;;;;;;5045088;28;20482;-30
2021/12/27 06:48:31;;;;;;;0.70;0.70;;;;;;;;;;5045186;28;20040;-32
2021/12/27 06:50:57;;;;;;;1.27;0.98;;;;;;;;;;5044974;28;20025;-33
2021/12/27 06:53:23;;;;;;;0.90;0.80;;;;;;;;;;5045299;28;20511;-33
2021/12/27 06:55:49;;;;;;;1.25;0.90;;;;;;;;;;5028962;28;20051;-34
2021/12/27 06:58:14;;;;;;;0.95;0.85;;;;;;;;;;5025048;28;20033;-30
2021/12/27 07:00:40;;;;;;;0.60;0.50;;;;;;;;;;5025088;28;20116;-32
2021/12/27 07:03:05;;;;;;;5.15;1.02;;;;;;;;;;5025019;28;20110;-32
2021/12/27 07:05:31;;;;;;;1.25;0.80;;;;;;;;;;5024899;28;20033;-29
2021/12/27 07:07:56;;;;;;;1.88;0.73;;;;;;;;;;5024861;28;20087;-32
2021/12/27 07:10:22;;;;;;;0.70;0.55;;;;;;;;;;5024562;28;20036;-36
2021/12/27 07:12:48;;;;;;;0.77;0.60;;;;;;;;;;5025001;28;20117;-33
2021/12/27 07:15:14;;;;;;;0.90;0.70;;;;;;;;;;5024662;28;20258;-33
2021/12/27 07:17:39;;;;;;;4.38;0.70;;;;;;;;;;5024706;28;20036;-33
2021/12/27 07:20:05;;;;;;;2.08;0.60;;;;;;;;;;5024719;28;20112;-34
2021/12/27 07:22:31;;;;;;;3.30;0.70;;;;;;;;;;5024683;28;20103;-32
2021/12/27 07:24:57;;;;;;;1.13;0.60;;;;;;;;;;5024234;28;20029;-32
2021/12/27 07:27:23;;;;;;;1.50;0.60;;;;;;;;;;5024561;28;20033;-31
2021/12/27 07:29:48;;;;;;;0.60;0.52;;;;;;;;;;5024308;28;20080;-30
2021/12/27 07:32:14;;;;;;;1.30;0.68;;;;;;;;;;5024617;28;20061;-33
2021/12/27 07:34:39;;;;;;;1.23;0.70;;;;;;;;;;5024440;28;20800;-30
2021/12/27 07:37:05;;;;;;;1.00;0.85;;;;;;;;;;5024255;28;20108;-31
2021/12/27 07:39:30;;;;;;;0.70;0.57;;;;;;;;;;5024202;28;20113;-31
2021/12/27 07:41:56;;;;;;;1.00;0.50;;;;;;;;;;5023587;28;20416;-30
2021/12/27 07:44:21;;;;;;;1.33;0.65;;;;;;;;;;5024252;28;20108;-35
2021/12/27 07:46:47;;;;;;;0.47;0.47;;;;;;;;;;5023890;28;20033;-30
2021/12/27 07:49:14;;;;;;;1.08;0.60;;;;;;;;;;5037593;28;20037;-36
2021/12/27 07:51:40;;;;;;;0.98;0.70;;;;;;;;;;5043729;28;20384;-29
2021/12/27 07:54:05;;;;;;;1.00;0.65;;;;;;;;;;5042952;28;20027;-34
2021/12/27 07:56:31;;;;;;;0.88;0.73;;;;;;;;;;5043849;28;20041;-30
2021/12/27 07:58:57;;;;;;;0.63;0.43;;;;;;;;;;5043890;28;20430;-33
2021/12/27 08:01:22;;;;;;;0.70;0.60;;;;;;;;;;5043613;28;20037;-35
2021/12/27 08:03:48;;;;;;;0.80;0.45;;;;;;;;;;5043622;28;20037;-31
2021/12/27 08:06:13;;;;;;;2.45;0.80;;;;;;;;;;5043483;28;20090;-31
2021/12/27 08:08:39;;;;;;;0.80;0.60;;;;;;;;;;5043348;28;20059;-30
2021/12/27 08:11:05;;;;;;;1.23;0.68;;;;;;;;;;5043430;28;20142;-33
2021/12/27 08:13:30;;;;;;;0.70;0.50;;;;;;;;;;5043550;28;20561;-36
2021/12/27 08:15:56;;;;;;;1.92;1.05;;;;;;;;;;5043167;28;20532;-29
2021/12/27 08:18:22;;;;;;;0.57;0.50;;;;;;;;;;5043485;28;20027;-30
2021/12/27 08:20:48;;;;;;;0.93;0.70;;;;;;;;;;5043778;28;20504;-34
2021/12/27 08:23:14;;;;;;;0.50;0.40;;;;;;;;;;5042136;28;20487;-31
2021/12/27 08:25:40;;;;;;;1.05;0.68;;;;;;;;;;5043014;28;20025;-37
2021/12/27 08:28:05;;;;;;;0.95;0.55;;;;;;;;;;5043155;28;20442;-31
2021/12/27 08:30:31;;;;;;;1.15;0.73;;;;;;;;;;5043320;28;20116;-35
2021/12/27 08:32:59;;;;;;;0.73;0.60;;;;;;;;;;5043199;28;20040;-34
2021/12/27 08:35:24;;;;;;;0.90;0.60;;;;;;;;;;5043286;28;20139;-30
2021/12/27 08:37:50;;;;;;;0.80;0.50;;;;;;;;;;5043315;28;20455;-31
2021/12/27 08:40:15;;;;;;;0.70;0.50;;;;;;;;;;5042929;28;20094;-31
2021/12/27 08:42:41;;;;;;;0.70;0.55;;;;;;;;;;5043211;28;20376;-34
2021/12/27 08:45:07;;;;;;;0.68;0.57;;;;;;;;;;5043250;28;20039;-31
2021/12/27 08:47:33;;;;;;;3.88;0.50;;;;;;;;;;5043017;28;20040;-35
2021/12/27 08:50:00;;;;;;;1.45;0.60;;;;;;;;;;5042836;28;20029;-31
2021/12/27 08:52:26;;;;;;;1.13;0.68;;;;;;;;;;5042434;28;20025;-35
2021/12/27 08:54:52;;;;;;;0.82;0.63;;;;;;;;;;5041919;28;20522;-33
2021/12/27 08:57:17;;;;;;;0.73;0.70;;;;;;;;;;5042656;28;20037;-32
2021/12/27 08:59:43;;;;;;;0.38;0.32;;;;;;;;;;5042805;28;20032;-30
2021/12/27 09:02:09;;;;;;;0.98;0.40;;;;;;;;;;5042241;28;20108;-31
2021/12/27 09:04:34;;;;;;;0.80;0.60;;;;;;;;;;5042675;28;20125;-31
2021/12/27 09:07:00;;;;;;;0.60;0.60;;;;;;;;;;5042642;28;20037;-32
2021/12/27 09:09:25;;;;;;;0.73;0.57;;;;;;;;;;5042277;28;20103;-31
2021/12/27 09:11:51;;;;;;;0.80;0.60;;;;;;;;;;5042376;28;20060;-30
2021/12/27 09:14:16;;;;;;;0.40;0.40;;;;;;;;;;5042732;28;20037;-29
2021/12/27 09:16:43;;;;;;;0.75;0.50;;;;;;;;;;5041206;28;20423;-32
2021/12/27 09:19:10;;;;;;;0.77;0.60;;;;;;;;;;5042712;28;20025;-34
2021/12/27 09:21:36;;;;;;;0.63;0.52;;;;;;;;;;5042480;28;20497;-30
2021/12/27 09:24:02;;;;;;;0.50;0.50;;;;;;;;;;5042116;28;20025;-29
2021/12/27 09:26:27;;;;;;;0.77;0.60;;;;;;;;;;5042773;28;20502;-34
2021/12/27 09:28:54;;;;;;;0.80;0.50;;;;;;;;;;5042377;28;20021;-31
2021/12/27 09:31:19;;;;;;;0.73;0.60;;;;;;;;;;5042369;28;20677;-33
2021/12/27 09:33:45;;;;;;;0.90;0.60;;;;;;;;;;5040863;28;20032;-34
2021/12/27 09:36:10;;;;;;;0.70;0.50;;;;;;;;;;5042277;28;20056;-32
2021/12/27 09:38:36;;;;;;;0.85;0.50;;;;;;;;;;5042518;28;20028;-29
2021/12/27 09:41:01;;;;;;;1.20;0.80;;;;;;;;;;5042213;28;20037;-33
2021/12/27 09:43:27;;;;;;;0.68;0.57;;;;;;;;;;5042348;28;20544;-30
2021/12/27 09:45:52;;;;;;;0.57;0.50;;;;;;;;;;5042173;28;20036;-36
2021/12/27 09:48:18;;;;;;;0.57;0.43;;;;;;;;;;5042544;28;20498;-30
2021/12/27 09:50:49;;;;;;;0.85;0.65;;;;;;;;;;5042385;28;20037;-29
2021/12/27 09:53:14;;;;;;;0.50;0.50;;;;;;;;;;5042235;28;20757;-31
2021/12/27 09:55:40;;;;;;;1.25;0.60;;;;;;;;;;5041708;28;20025;-32
2021/12/27 09:58:06;;;;;;;0.88;0.70;;;;;;;;;;5042340;28;20050;-30
2021/12/27 10:00:32;;;;;;;1.13;0.60;;;;;;;;;;5042248;28;20032;-29
2021/12/27 10:02:57;;;;;;;1.48;0.65;;;;;;;;;;5042120;28;20550;-36
2021/12/27 10:05:24;;;;;;;0.90;0.60;;;;;;;;;;5045599;28;20071;-31
2021/12/27 10:07:50;;;;;;;1.05;0.50;;;;;;;;;;5045708;28;20052;-34
2021/12/27 10:10:15;;;;;;;0.70;0.50;;;;;;;;;;5045710;28;20051;-31
2021/12/27 10:12:41;;;;;;;0.52;0.52;;;;;;;;;;5045845;28;20032;-30
2021/12/27 10:15:09;;;;;;;0.88;0.63;;;;;;;;;;5045627;28;20033;-31
2021/12/27 10:17:35;;;;;;;0.40;0.40;;;;;;;;;;5028185;28;20480;-30
2021/12/27 10:20:14;;;;;;;0.68;0.63;;;;;;;;;;5045619;28;20033;-34
2021/12/27 10:22:43;;;;;;;0.45;0.40;;;;;;;;;;5045970;28;20087;-31
2021/12/27 10:25:13;;;;;;;0.68;0.50;;;;;;;;;;5045998;28;20749;-33
2021/12/27 10:27:39;;;;;;;2.00;0.60;;;;;;;;;;5045500;28;20036;-31
2021/12/27 10:30:12;;;;;;;0.60;0.52;;;;;;;;;;5045527;28;20033;-30
2021/12/27 10:32:37;;;;;;;;;;;;;;;;;;5046368;28;20021;-37
2021/12/27 10:35:05;;;;;;;0.80;0.52;;;;;;;;;;5045277;28;19990;-34
2021/12/27 10:37:32;;;;;;;1.00;0.50;;;;;;;;;;5043799;28;20029;-31
2021/12/27 10:40:15;;;;;;;0.55;0.50;;;;;;;;;;5045356;28;20087;-34
2021/12/27 10:42:50;;;;;;;0.68;0.57;;;;;;;;;;5045562;28;20051;-31
2021/12/27 10:45:18;;;;;;;1.00;0.52;;;;;;;;;;5043555;28;20106;-35
2021/12/27 10:47:54;;;;;;;0.70;0.52;;;;;;;;;;5045201;28;20033;-31
2021/12/27 10:50:23;;;;;;;1.33;0.60;;;;;;;;;;5045222;28;20844;-30
2021/12/27 10:52:59;;;;;;;0.77;0.55;;;;;;;;;;5045201;28;20033;-35
2021/12/27 10:55:38;;;;;;;1.02;0.70;;;;;;;;;;5044072;28;20044;-34
2021/12/27 10:58:24;;;;;;;0.80;0.57;;;;;;;;;;5044867;28;20090;-35
2021/12/27 11:01:00;;;;;;;0.70;0.68;;;;;;;;;;5044893;28;20482;-34
2021/12/27 11:03:31;;;;;;;0.50;0.50;;;;;;;;;;5044979;28;20029;-30
2021/12/27 11:05:57;;;;;;;0.60;0.60;;;;;;;;;;5028283;28;20555;-31
2021/12/27 11:08:22;;;;;;;0.38;0.38;;;;;;;;;;5024726;28;20129;-32
2021/12/27 11:10:48;;;;;;;0.65;0.50;;;;;;;;;;5024921;28;20057;-33
2021/12/27 11:13:13;;;;;;;0.57;0.40;;;;;;;;;;5024739;28;20033;-31
2021/12/27 11:15:40;;;;;;;0.60;0.50;;;;;;;;;;5024179;28;20033;-29
2021/12/27 11:18:06;;;;;;;0.82;0.63;;;;;;;;;;5024566;28;20108;-34
2021/12/27 11:20:31;;;;;;;0.43;0.43;;;;;;;;;;5024779;28;20144;-29
2021/12/27 11:22:58;;;;;;;0.52;0.40;;;;;;;;;;5023490;28;20674;-33
2021/12/27 11:25:37;;;;;;;0.50;0.40;;;;;;;;;;5024262;28;20025;-35
2021/12/27 11:28:04;;;;;;;0.47;0.43;;;;;;;;;;5024644;28;20526;-32
2021/12/27 11:30:31;;;;;;;0.32;0.32;;;;;;;;;;5023104;28;20025;-37
2021/12/27 11:33:12;;;;;;;0.50;0.50;;;;;;;;;;5024351;28;20570;-31
2021/12/27 11:35:40;;;;;;;0.47;0.40;;;;;;;;;;5024448;28;20091;-32
2021/12/27 11:38:05;;;;;;;0.47;0.45;;;;;;;;;;5024164;28;20025;-33
2021/12/27 11:40:57;;;;;;;1.00;0.45;;;;;;;;;;5024255;28;20258;-35
2021/12/27 11:43:23;;;;;;;0.60;0.50;;;;;;;;;;5023077;28;20128;-33
2021/12/27 11:45:53;;;;;;;0.93;0.50;;;;;;;;;;5022595;28;20029;-35
2021/12/27 11:48:23;;;;;;;0.80;0.60;;;;;;;;;;5022656;28;20091;-30
2021/12/27 11:51:05;;;;;;;1.23;0.60;;;;;;;;;;5024367;28;20025;-33
2021/12/27 11:53:41;;;;;;;0.60;0.50;;;;;;;;;;5039446;28;20034;-30
2021/12/27 11:56:10;;;;;;;0.38;0.38;;;;;;;;;;5035471;28;20166;-31
2021/12/27 11:58:36;;;;;;;0.47;0.47;;;;;;;;;;5043896;28;20039;-32
2021/12/27 12:01:06;;;;;;;0.65;0.32;;;;;;;;;;5043669;28;20025;-35
2021/12/27 12:03:42;;;;;;;0.68;0.57;;;;;;;;;;5043649;28;20033;-32
2021/12/27 12:06:27;;;;;;;0.65;0.60;;;;;;;;;;5043289;28;20032;-32
2021/12/27 12:08:53;;;;;;;0.40;0.40;;;;;;;;;;5043228;28;20041;-31
2021/12/27 12:11:28;;;;;;;0.50;0.50;;;;;;;;;;5043222;28;20090;-30
2021/12/27 12:13:54;;;;;;;0.50;0.40;;;;;;;;;;5043790;28;20938;-33
2021/12/27 12:16:20;;;;;;;0.65;0.50;;;;;;;;;;5043318;28;20029;-33
2021/12/27 12:18:51;;;;;;;0.65;0.50;;;;;;;;;;5043153;28;20032;-32
2021/12/27 12:21:36;;;;;;;0.50;0.50;;;;;;;;;;5043487;28;20146;-31
2021/12/27 12:24:15;;;;;;;0.73;0.50;;;;;;;;;;5043250;28;20068;-29
2021/12/27 12:27:04;;;;;;;0.40;0.40;;;;;;;;;;5042599;28;20025;-32
2021/12/27 12:29:40;;;;;;;0.95;0.65;;;;;;;;;;5043165;28;20499;-34
2021/12/27 12:32:07;;;;;;;0.98;0.47;;;;;;;;;;5043119;28;20025;-32
2021/12/27 12:34:33;;;;;;;0.80;0.50;;;;;;;;;;5043068;28;20082;-32
2021/12/27 12:37:00;;;;;;;0.32;0.32;;;;;;;;;;5043316;28;20036;-30
2021/12/27 12:39:41;;;;;;;0.68;0.50;;;;;;;;;;5043230;28;20045;-35
2021/12/27 12:42:14;;;;;;;0.47;0.43;;;;;;;;;;5043025;28;20029;-30
2021/12/27 12:44:47;;;;;;;1.02;0.40;;;;;;;;;;5042906;28;20020;-35
2021/12/27 12:47:12;;;;;;;0.40;0.40;;;;;;;;;;5042781;28;20098;-29
2021/12/27 12:49:38;;;;;;;0.75;0.60;;;;;;;;;;5042956;28;20028;-31
2021/12/27 12:52:04;;;;;;;0.68;0.55;;;;;;;;;;5042968;28;20029;-29
2021/12/27 12:54:34;;;;;;;0.63;0.50;;;;;;;;;;5034369;28;20029;-36
2021/12/27 12:57:12;;;;;;;2.40;0.60;;;;;;;;;;5023210;28;20026;-30
2021/12/27 12:59:42;;;;;;;0.70;0.50;;;;;;;;;;5022942;28;20047;-34
2021/12/27 13:02:12;;;;;;;0.88;0.40;;;;;;;;;;5022811;28;20029;-29
2021/12/27 13:04:38;;;;;;;0.40;0.40;;;;;;;;;;5022864;28;20523;-32
2021/12/27 13:07:04;;;;;;;1.35;0.50;;;;;;;;;;5022298;28;20033;-32
2021/12/27 13:09:46;;;;;;;0.98;0.45;;;;;;;;;;5022855;28;20032;-35
2021/12/27 13:12:12;;;;;;;0.57;0.50;;;;;;;;;;5023060;28;20030;-34
2021/12/27 13:14:38;;;;;;;0.80;0.50;;;;;;;;;;5028170;28;20036;-32
2021/12/27 13:17:14;;;;;;;0.55;0.38;;;;;;;;;;5042446;28;20055;-30
2021/12/27 13:20:06;;;;;;;0.40;0.40;;;;;;;;;;5042457;28;20031;-29
2021/12/27 13:22:51;;;;;;;0.47;0.38;;;;;;;;;;5042315;28;20037;-33
2021/12/27 13:25:39;;;;;;;0.30;0.30;;;;;;;;;;5042564;28;20040;-31
2021/12/27 13:28:27;;;;;;;1.13;0.50;;;;;;;;;;5042608;28;20555;-29
2021/12/27 13:31:12;;;;;;;0.80;0.40;;;;;;;;;;5042792;28;20124;-33
2021/12/27 13:33:46;;;;;;;0.60;0.32;;;;;;;;;;5042728;28;20597;-32
2021/12/27 13:36:22;;;;;;;0.55;0.30;;;;;;;;;;5042413;28;20077;-35
2021/12/27 13:39:10;;;;;;;0.68;0.50;;;;;;;;;;5043913;28;20035;-34
2021/12/27 13:42:08;;;;;;;0.98;0.40;;;;;;;;;;5045324;28;20056;-31
2021/12/27 13:44:34;;;;;;;0.95;0.40;;;;;;;;;;5043023;28;20055;-31
2021/12/27 13:47:02;;;;;;;0.73;0.50;;;;;;;;;;5046189;28;20037;-32
2021/12/27 13:49:27;;;;;;;0.52;0.40;;;;;;;;;;5046475;28;20036;-33
2021/12/27 13:52:12;;;;;;;0.60;0.40;;;;;;;;;;5046396;28;20613;-30
2021/12/27 13:54:44;;;;;;;0.52;0.50;;;;;;;;;;5045951;28;20028;-30
2021/12/27 13:57:10;;;;;;;0.47;0.30;;;;;;;;;;5046194;28;20041;-32
2021/12/27 13:59:36;;;;;;;0.40;0.40;;;;;;;;;;5046481;28;20294;-29
2021/12/27 14:02:03;;;;;;;0.70;0.50;;;;;;;;;;5045616;28;20029;-29
2021/12/27 14:04:30;;;;;;;0.85;0.30;;;;;;;;;;5046326;28;20029;-33
2021/12/27 14:06:56;;;;;;;0.95;0.40;;;;;;;;;;5031907;28;20519;-31
2021/12/27 14:09:26;;;;;;;0.80;0.40;;;;;;;;;;5025646;28;20050;-33
2021/12/27 14:11:52;;;;;;;0.30;0.30;;;;;;;;;;5026407;28;20149;-31
2021/12/27 14:14:36;;;;;;;0.28;0.22;;;;;;;;;;5025950;28;20029;-34
2021/12/27 14:17:05;;;;;;;0.40;0.40;;;;;;;;;;5025907;28;20033;-33
2021/12/27 14:19:31;;;;;;;0.63;0.40;;;;;;;;;;5025942;28;20114;-30
2021/12/27 14:22:00;;;;;;;1.50;0.50;;;;;;;;;;5025571;28;20661;-30
2021/12/27 14:24:32;;;;;;;0.38;0.30;;;;;;;;;;5025566;28;20029;-32
2021/12/27 14:26:58;;;;;;;0.30;0.30;;;;;;;;;;5025828;28;20690;-29
2021/12/27 14:29:25;;;;;;;0.77;0.45;;;;;;;;;;5025401;28;20025;-30
2021/12/27 14:31:52;;;;;;;0.30;0.30;;;;;;;;;;5023979;28;20492;-33
2021/12/27 14:34:57;;;;;;;0.60;0.50;;;;;;;;;;5025398;28;20057;-29
2021/12/27 14:37:23;;;;;;;0.50;0.50;;;;;;;;;;5011789;28;20837;-30
2021/12/27 14:39:48;;;;;;;0.60;0.50;;;;;;;;;;5022301;28;20038;-32
2021/12/27 14:42:14;;;;;;;0.68;0.52;;;;;;;;;;5033083;28;20604;-34
2021/12/27 14:44:43;;;;;;;0.75;0.57;;;;;;;;;;5045386;28;20114;-35
2021/12/27 14:47:09;;;;;;;0.73;0.40;;;;;;;;;;5044898;28;20033;-33
2021/12/27 14:49:36;;;;;;;0.52;0.45;;;;;;;;;;5042379;28;20036;-31
2021/12/27 14:52:02;;;;;;;0.52;0.40;;;;;;;;;;5024549;28;20022;-31